Time;durP1;ratioP1;P1;durP2;ratioP2;P2;SDS_P1;SDS_P2;PMS_P1;PMS_P2;Temp;Humidity;BMP_temperature;BMP_pressure;BME280_temperature;BME280_humidity;BME280_pressure;Samples;Min_cycle;Max_cycle;Signal;HPM_P1;HPM_P2
2021/04/13 00:02:46;;;;;;;;;;;7.00;99.90;;;7.16;68.00;103024.50;5073627;28;20751;-68
2021/04/13 00:05:25;;;;;;;;;;;7.00;99.90;;;7.15;67.71;103027.97;5073435;28;19971;-68
2021/04/13 00:07:52;;;;;;;;;;;7.00;99.90;;;7.11;67.76;103024.28;5073689;28;19927;-67
2021/04/13 00:10:27;;;;;;;;;;;6.90;99.90;;;7.15;67.33;103030.59;5073462;28;20462;-67
2021/04/13 00:12:58;;;;;;;;;;;7.00;99.90;;;7.02;67.59;103013.38;5073066;28;19921;-67
2021/04/13 00:15:28;;;;;;;;;;;7.00;99.90;;;7.19;66.94;103024.63;5073418;28;20002;-67
2021/04/13 00:18:00;;;;;;;;;;;7.00;99.90;;;7.14;67.23;103036.69;5072390;28;20289;-67
2021/04/13 00:20:34;;;;;;;;;;;7.00;99.90;;;7.16;66.58;103021.88;5073403;28;19924;-67
2021/04/13 00:23:01;;;;;;;;;;;7.00;99.90;;;7.19;66.60;103022.00;5073464;28;19925;-67
2021/04/13 00:25:31;;;;;;;;;;;7.00;99.90;;;7.11;66.31;103016.41;5073391;28;19920;-67
2021/04/13 00:27:59;;;;;;;;;;;7.00;99.90;;;7.08;66.17;103028.53;5071847;28;19924;-68
2021/04/13 00:30:46;;;;;;;;;;;6.90;99.90;;;6.92;66.05;103000.63;5073506;28;19973;-67
2021/04/13 00:33:26;;;;;;;;;;;6.90;99.90;;;7.10;66.25;103029.50;5073266;28;20361;-67
2021/04/13 00:36:08;;;;;;;;;;;6.90;99.90;;;7.10;66.09;103024.22;5073228;28;19924;-67
2021/04/13 00:38:38;;;;;;;;;;;6.90;99.90;;;7.06;66.36;103025.84;5072862;28;20313;-67
2021/04/13 00:41:15;;;;;;;;;;;6.80;99.90;;;7.11;66.76;103029.56;5073154;28;19920;-67
2021/04/13 00:43:45;;;;;;;;;;;6.90;99.90;;;7.10;66.28;103027.75;5073426;28;19920;-67
2021/04/13 00:46:15;;;;;;;;;;;6.90;99.90;;;7.05;66.22;103028.38;5071779;28;19920;-67
2021/04/13 00:48:43;;;;;;;;;;;6.80;99.90;;;7.08;66.07;103018.00;5072975;28;19920;-67
2021/04/13 00:51:20;;;;;;;;;;;6.80;99.90;;;6.36;66.01;102897.28;5072964;28;19924;-67
2021/04/13 00:53:49;;;;;;;;;;;6.90;99.90;;;7.09;66.16;103032.94;5073139;28;20404;-67
2021/04/13 00:56:19;;;;;;;;;;;6.90;99.90;;;7.05;66.30;103018.75;5073161;28;20292;-67
2021/04/13 00:58:48;;;;;;;;;;;6.90;99.90;;;7.10;67.34;103021.59;5073296;28;19970;-68
2021/04/13 01:01:20;;;;;;;;;;;6.80;99.90;;;7.03;67.21;103024.78;5073170;28;19925;-67
2021/04/13 01:03:50;;;;;;;;;;;6.90;99.90;;;6.97;67.08;103019.22;5073195;28;19929;-67
2021/04/13 01:06:24;;;;;;;;;;;6.80;99.90;;;6.92;67.88;103026.03;5073171;28;19920;-67
2021/04/13 01:09:09;;;;;;;;;;;6.70;99.90;;;6.17;67.99;102908.69;5071732;28;19928;-67
2021/04/13 01:11:42;;;;;;;;;;;6.70;99.90;;;6.71;68.94;103019.81;5072916;28;19927;-68
2021/04/13 01:14:12;;;;;;;;;;;6.60;99.90;;;6.58;69.53;103018.31;5071784;28;19921;-68
2021/04/13 01:16:42;;;;;;;;;;;6.50;99.90;;;6.45;69.78;103020.31;5072903;28;19966;-67
2021/04/13 01:19:16;;;;;;;;;;;6.30;99.90;;;6.41;70.05;103021.03;5072989;28;20370;-67
2021/04/13 01:22:00;;;;;;;;;;;6.30;99.90;;;6.32;70.33;103022.41;5071547;28;20274;-68
2021/04/13 01:24:37;;;;;;;;;;;6.10;99.90;;;6.25;70.40;103025.53;5074721;28;19920;-67
2021/04/13 01:27:20;;;;;;;;;;;6.10;99.90;;;6.19;70.76;103037.50;5076687;28;19920;-67
2021/04/13 01:29:48;;;;;;;;;;;6.00;99.90;;;5.99;71.29;103006.75;5076771;28;19931;-67
2021/04/13 01:32:16;;;;;;;;;;;6.00;99.90;;;5.97;70.70;103027.69;5076393;28;19920;-67
2021/04/13 01:34:58;;;;;;;;;;;5.80;99.90;;;6.04;70.65;103034.16;5075219;28;19921;-67
2021/04/13 01:37:35;;;;;;;;;;;5.80;99.90;;;6.05;70.84;103028.06;5076734;28;19927;-67
2021/04/13 01:40:16;;;;;;;;;;;5.90;99.90;;;5.97;71.45;103030.31;5076366;28;20006;-67
2021/04/13 01:42:44;;;;;;;;;;;5.80;99.90;;;5.96;71.59;103028.50;5076389;28;19927;-68
2021/04/13 01:45:13;;;;;;;;;;;5.80;99.90;;;5.96;71.52;103033.75;5076269;28;19920;-67
2021/04/13 01:47:41;;;;;;;;;;;5.80;99.90;;;5.96;72.36;103032.88;5076179;28;19920;-68
2021/04/13 01:50:15;;;;;;;;;;;5.70;99.90;;;5.47;71.74;102958.63;5076406;28;19924;-67
2021/04/13 01:52:48;;;;;;;;;;;5.70;99.90;;;5.90;71.46;103027.31;5076335;28;19920;-68
2021/04/13 01:55:20;;;;;;;;;;;5.70;99.90;;;5.94;70.92;103032.78;5076481;28;20270;-68
2021/04/13 01:57:53;;;;;;;;;;;5.80;99.90;;;6.03;70.18;103033.25;5074729;28;20340;-67
2021/04/13 02:00:30;;;;;;;;;;;5.90;99.90;;;6.12;69.92;103036.31;5075051;28;19943;-67
2021/04/13 02:03:04;;;;;;;;;;;6.00;99.90;;;6.16;68.73;103039.97;5076132;28;19974;-67
2021/04/13 02:05:34;;;;;;;;;;;6.10;99.90;;;6.10;68.23;103030.06;5076052;28;19920;-67
2021/04/13 02:08:08;;;;;;;;;;;6.00;99.90;;;6.05;68.31;103028.97;5075762;28;19928;-67
2021/04/13 02:10:41;;;;;;;;;;;6.00;99.90;;;6.00;69.04;103040.94;5074847;28;20431;-67
2021/04/13 02:13:17;;;;;;;;;;;5.90;99.90;;;5.96;69.56;103033.75;5076023;28;20007;-67
2021/04/13 02:15:53;;;;;;;;;;;5.80;99.90;;;5.91;70.04;103034.34;5076012;28;19934;-67
2021/04/13 02:18:23;;;;;;;;;;;5.80;99.90;;;5.83;69.15;103012.97;5074440;28;19930;-67
2021/04/13 02:20:52;;;;;;;;;;;5.90;99.90;;;6.01;68.29;103048.03;5074292;28;19928;-67
2021/04/13 02:23:29;;;;;;;;;;;5.90;99.90;;;5.99;67.64;103054.94;5075779;28;20021;-67
2021/04/13 02:25:59;;;;;;;;;;;5.90;99.90;;;5.98;69.33;103053.09;5075770;28;19921;-67
2021/04/13 02:28:30;;;;;;;;;;;5.80;99.90;;;5.84;70.12;103048.94;5074196;28;19921;-67
2021/04/13 02:31:06;;;;;;;;;;;5.70;99.90;;;5.68;70.21;103030.56;5075536;28;19921;-68
2021/04/13 02:33:36;;;;;;;;;;;5.70;99.90;;;5.79;70.50;103052.13;5075680;28;19920;-67
2021/04/13 02:36:14;;;;;;;;;;;5.60;99.90;;;5.76;70.60;103044.06;5074803;28;20366;-67
2021/04/13 02:38:47;;;;;;;;;;;5.60;99.90;;;5.72;70.36;103040.41;5075253;28;19924;-67
2021/04/13 02:41:20;;;;;;;;;;;5.60;99.90;;;5.70;70.33;103041.13;5075273;28;19928;-67
2021/04/13 02:43:50;;;;;;;;;;;5.60;99.90;;;5.69;70.32;103039.34;5075250;28;19978;-67
2021/04/13 02:46:20;;;;;;;;;;;5.50;99.90;;;5.73;70.35;103044.81;5075214;28;19970;-67
2021/04/13 02:48:52;;;;;;;;;;;5.60;99.90;;;5.73;70.46;103044.81;5073936;28;19924;-67
2021/04/13 02:51:21;;;;;;;;;;;5.50;99.90;;;5.65;70.17;103055.75;5073977;28;19927;-68
2021/04/13 02:53:51;;;;;;;;;;;5.50;99.90;;;5.63;69.80;103047.81;5075137;28;19970;-67
2021/04/13 02:56:28;;;;;;;;;;;5.50;99.90;;;5.69;70.47;103053.34;5075305;28;19920;-67
2021/04/13 02:59:06;;;;;;;;;;;5.50;99.90;;;5.75;71.08;103048.41;5074882;28;20324;-67
2021/04/13 03:01:34;;;;;;;;;;;5.50;99.90;;;5.62;70.92;103027.63;5075111;28;19926;-67
2021/04/13 03:04:07;;;;;;;;;;;5.60;99.90;;;5.49;70.71;103005.13;5074852;28;20428;-67
2021/04/13 03:06:38;;;;;;;;;;;5.60;99.90;;;5.51;69.55;103049.81;5074704;28;19920;-67
2021/04/13 03:09:09;;;;;;;;;;;5.30;99.90;;;5.46;70.30;103044.31;5074992;28;19921;-67
2021/04/13 03:11:37;;;;;;;;;;;5.30;99.90;;;5.33;70.53;103012.13;5074936;28;19927;-67
2021/04/13 03:14:06;;;;;;;;;;;5.30;99.90;;;5.53;71.14;103042.91;5074787;28;19927;-67
2021/04/13 03:16:36;;;;;;;;;;;5.30;99.90;;;5.53;71.95;103043.78;5073429;28;19921;-67
2021/04/13 03:19:08;;;;;;;;;;;5.30;99.90;;;5.55;71.87;103043.00;5074515;28;19987;-67
2021/04/13 03:21:37;;;;;;;;;;;5.40;99.90;;;5.55;71.52;103041.28;5074788;28;19932;-68
2021/04/13 03:24:09;;;;;;;;;;;5.40;99.90;;;5.64;72.14;103054.84;5074640;28;19924;-67
2021/04/13 03:26:44;;;;;;;;;;;5.40;99.90;;;5.41;71.95;103019.59;5074376;28;20439;-68
2021/04/13 03:29:16;;;;;;;;;;;5.40;99.90;;;5.57;71.28;103049.22;5074800;28;19947;-67
2021/04/13 03:31:44;;;;;;;;;;;5.40;99.90;;;5.53;70.45;103049.03;5074317;28;19924;-67
2021/04/13 03:34:12;;;;;;;;;;;5.40;99.90;;;5.60;70.73;103054.63;5074777;28;19939;-67
2021/04/13 03:36:39;;;;;;;;;;;5.40;99.90;;;5.54;70.31;103052.59;5074377;28;19932;-68
2021/04/13 03:39:13;;;;;;;;;;;5.30;99.90;;;5.62;69.98;103043.38;5074009;28;19960;-67
2021/04/13 03:41:43;;;;;;;;;;;5.40;99.90;;;5.69;70.36;103057.72;5072934;28;19924;-67
2021/04/13 03:44:11;;;;;;;;;;;5.50;99.90;;;5.67;70.21;103046.25;5074025;28;19921;-67
2021/04/13 03:46:39;;;;;;;;;;;5.50;99.90;;;5.70;70.18;103047.28;5073240;28;19955;-67
2021/04/13 03:49:10;;;;;;;;;;;5.50;99.90;;;5.70;70.13;103055.16;5072769;28;19926;-67
2021/04/13 03:51:41;;;;;;;;;;;5.50;99.90;;;5.63;69.21;103062.66;5072814;28;19947;-67
2021/04/13 03:54:23;;;;;;;;;;;5.50;99.90;;;5.59;68.78;103065.94;5074284;28;19946;-67
2021/04/13 03:56:52;;;;;;;;;;;5.40;99.90;;;5.64;69.14;103083.72;5072514;28;20377;-68
2021/04/13 03:59:21;;;;;;;;;;;5.40;99.90;;;5.67;69.53;103047.13;5073995;28;19928;-67
2021/04/13 04:01:50;;;;;;;;;;;5.50;99.90;;;5.66;69.63;103050.59;5072569;28;20279;-67
2021/04/13 04:04:23;;;;;;;;;;;5.50;99.90;;;5.21;69.58;102975.69;5073787;28;19974;-67
2021/04/13 04:06:54;;;;;;;;;;;5.50;99.90;;;5.63;69.14;103055.69;5072271;28;20340;-69
2021/04/13 04:09:37;;;;;;;;;;;5.50;99.90;;;5.61;69.21;103051.19;5073486;28;19932;-68
2021/04/13 04:12:17;;;;;;;;;;;5.40;99.90;;;5.61;69.23;103052.09;5073470;28;20373;-70
2021/04/13 04:14:56;;;;;;;;;;;5.40;99.90;;;5.64;69.74;103036.47;5072320;28;19925;-69
2021/04/13 04:17:23;;;;;;;;;;;5.50;99.90;;;5.77;70.49;103052.00;5073453;28;19920;-70
2021/04/13 04:19:55;;;;;;;;;;;5.50;99.90;;;5.80;70.76;103046.94;5073687;28;19924;-70
2021/04/13 04:22:23;;;;;;;;;;;5.60;99.90;;;5.90;70.44;103057.09;5073392;28;19927;-71
2021/04/13 04:24:52;;;;;;;;;;;5.70;99.90;;;5.97;69.93;103069.72;5073443;28;19960;-70
2021/04/13 04:27:27;;;;;;;;;;;5.70;99.90;;;6.07;69.30;103066.72;5073190;28;19927;-69
2021/04/13 04:30:21;;;;;;;;;;;5.80;99.90;;;6.11;68.70;103062.50;5073252;28;19966;-70
2021/04/13 04:32:49;;;;;;;;;;;5.90;99.90;;;6.05;69.24;103071.00;5073490;28;20396;-70
2021/04/13 04:35:33;;;;;;;;;;;5.90;99.90;;;6.11;69.45;103068.66;5071918;28;19925;-75
2021/04/13 04:38:04;;;;;;;;;;;5.90;99.90;;;6.22;68.96;103075.34;5073213;28;19932;-70
2021/04/13 04:40:57;;;;;;;;;;;5.90;99.90;;;6.21;68.28;103068.25;5073187;28;19924;-70
2021/04/13 04:43:53;;;;;;;;;;;6.00;99.90;;;6.12;68.17;103073.09;5071995;28;19920;-76
2021/04/13 04:46:38;;;;;;;;;;;6.00;99.90;;;6.23;68.06;103077.13;5073172;28;19924;-72
2021/04/13 04:49:07;;;;;;;;;;;6.00;99.90;;;6.23;67.60;103078.88;5071942;28;19992;-71
2021/04/13 04:51:35;;;;;;;;;;;6.00;99.90;;;6.42;67.32;103089.44;5073004;28;19924;-70
2021/04/13 04:54:05;;;;;;;;;;;6.10;99.90;;;6.42;66.87;103075.38;5073105;28;19927;-70
2021/04/13 04:56:35;;;;;;;;;;;6.20;99.90;;;6.47;66.46;103077.41;5073120;28;19928;-70
2021/04/13 04:59:03;;;;;;;;;;;6.30;99.90;;;6.36;66.43;103068.13;5071235;28;19924;-71
2021/04/13 05:01:30;;;;;;;;;;;6.30;99.90;;;6.49;66.45;103086.25;5073133;28;20032;-71
2021/04/13 05:03:57;;;;;;;;;;;6.30;99.90;;;6.61;66.62;103086.84;5073167;28;19924;-71
2021/04/13 05:06:26;;;;;;;;;;;6.40;99.90;;;6.62;66.81;103093.91;5072886;28;19920;-71
2021/04/13 05:08:54;;;;;;;;;;;6.40;99.90;;;6.68;66.96;103095.94;5071656;28;20282;-71
2021/04/13 05:11:21;;;;;;;;;;;6.40;99.90;;;6.53;67.05;103074.16;5071621;28;19920;-71
2021/04/13 05:13:50;;;;;;;;;;;6.50;99.90;;;6.69;67.00;103068.81;5072696;28;19924;-71
2021/04/13 05:16:17;;;;;;;;;;;6.60;99.90;;;6.98;66.68;103099.97;5071569;28;19946;-71
2021/04/13 05:18:45;;;;;;;;;;;6.70;99.90;;;7.09;65.36;103098.72;5071614;28;19920;-71
2021/04/13 05:21:12;;;;;;;;;;;6.80;99.90;;;7.19;65.65;103104.50;5072876;28;19920;-70
2021/04/13 05:23:39;;;;;;;;;;;7.00;99.90;;;7.26;65.85;103109.19;5072763;28;19924;-71
2021/04/13 05:26:07;;;;;;;;;;;7.10;99.90;;;7.13;64.48;103085.78;5072604;28;19955;-71
2021/04/13 05:28:34;;;;;;;;;;;7.00;99.90;;;7.26;64.82;103113.53;5072441;28;19964;-71
2021/04/13 05:31:02;;;;;;;;;;;7.10;99.90;;;7.37;65.10;103111.41;5073115;28;20020;-71
2021/04/13 05:33:30;;;;;;;;;;;7.10;99.90;;;7.51;63.83;103110.28;5072567;28;19925;-71
2021/04/13 05:35:58;;;;;;;;;;;7.30;99.90;;;7.61;63.24;103105.47;5071454;28;20357;-71
2021/04/13 05:38:27;;;;;;;;;;;7.40;99.90;;;7.65;63.20;103123.22;5071275;28;19924;-71
2021/04/13 05:40:58;;;;;;;;;;;7.50;99.90;;;7.77;63.18;103125.47;5072187;28;20479;-71
2021/04/13 05:43:25;;;;;;;;;;;7.50;99.90;;;7.95;63.25;103118.38;5071387;28;19924;-72
2021/04/13 05:45:57;;;;;;;;;;;7.70;99.90;;;8.26;62.53;103152.22;5072399;28;19956;-71
2021/04/13 05:48:26;;;;;;;;;;;8.00;99.90;;;8.36;61.81;103130.66;5072507;28;19920;-71
2021/04/13 05:50:54;;;;;;;;;;;8.10;99.90;;;8.40;61.26;103101.81;5072476;28;19966;-71
2021/04/13 05:53:21;;;;;;;;;;;8.30;99.90;;;8.83;59.98;103122.88;5072363;28;19928;-71
2021/04/13 05:55:49;;;;;;;;;;;8.60;99.90;;;8.96;60.31;103133.09;5072534;28;19920;-71
2021/04/13 05:58:19;;;;;;;;;;;8.70;99.90;;;9.31;59.68;103144.97;5072555;28;19920;-71
2021/04/13 06:00:49;;;;;;;;;;;9.00;99.90;;;9.57;58.45;103153.00;5071067;28;19924;-71
2021/04/13 06:03:18;;;;;;;;;;;9.20;99.90;;;9.90;57.82;103156.84;5072663;28;19924;-71
2021/04/13 06:05:47;;;;;;;;;;;9.50;99.90;;;9.86;57.20;103149.66;5072181;28;19982;-71
2021/04/13 06:08:15;;;;;;;;;;;9.60;99.90;;;9.69;56.57;103132.31;5071077;28;19964;-71
2021/04/13 06:10:42;;;;;;;;;;;9.60;99.90;;;10.08;56.20;103159.25;5074267;28;20396;-71
2021/04/13 06:13:09;;;;;;;;;;;9.80;99.90;;;10.10;55.79;103143.47;5075888;28;20368;-71
2021/04/13 06:15:37;;;;;;;;;;;10.00;99.90;;;10.51;55.51;103173.06;5074591;28;20435;-72
2021/04/13 06:18:05;;;;;;;;;;;10.20;99.90;;;10.56;55.22;103175.88;5075697;28;19921;-71
2021/04/13 06:20:33;;;;;;;;;;;10.30;99.90;;;10.77;54.81;103180.13;5075628;28;19921;-71
2021/04/13 06:23:01;;;;;;;;;;;10.40;99.90;;;10.91;53.20;103175.25;5075860;28;19920;-71
2021/04/13 06:25:30;;;;;;;;;;;10.60;99.90;;;10.63;52.98;103157.59;5075731;28;19924;-71
2021/04/13 06:27:57;;;;;;;;;;;10.50;99.90;;;11.07;54.26;103206.63;5074057;28;19946;-71
2021/04/13 06:30:26;;;;;;;;;;;10.70;99.90;;;10.94;52.97;103158.56;5075409;28;19928;-71
2021/04/13 06:32:58;;;;;;;;;;;10.80;99.90;;;11.30;53.03;103187.06;5075285;28;19982;-71
2021/04/13 06:35:26;;;;;;;;;;;11.00;99.90;;;11.53;53.38;103188.66;5075611;28;19920;-71
2021/04/13 06:37:55;;;;;;;;;;;11.20;99.90;;;11.59;51.93;103191.44;5075501;28;20015;-71
2021/04/13 06:40:33;;;;;;;;;;;11.40;99.90;;;11.21;51.16;103192.06;5074943;28;19921;-71
2021/04/13 06:43:11;;;;;;;;;;;11.20;99.90;;;11.21;51.23;103197.38;5073904;28;19931;-71
2021/04/13 06:45:48;;;;;;;;;;;11.00;99.90;;;11.12;51.13;103207.69;5075100;28;19921;-71
2021/04/13 06:48:25;;;;;;;;;;;10.90;99.90;;;11.13;51.82;103190.06;5075294;28;19947;-71
2021/04/13 06:50:58;;;;;;;;;;;11.00;99.90;;;10.41;51.18;103069.56;5073708;28;19942;-71
2021/04/13 06:54:10;;;;;;;;;;;11.00;99.90;;;11.26;51.40;103209.03;5074938;28;19924;-71
2021/04/13 06:56:58;;;;;;;;;;;11.00;99.90;;;11.32;50.90;103210.97;5063341;28;20365;-71
2021/04/13 06:59:42;;;;;;;;;;;11.10;99.90;;;11.45;52.00;103219.31;5074966;28;19928;-71
2021/04/13 07:02:13;;;;;;;;;;;11.20;99.90;;;11.42;51.27;103211.25;5075172;28;19928;-71
2021/04/13 07:04:46;;;;;;;;;;;11.30;99.90;;;11.25;50.83;103188.66;5073709;28;20102;-71
2021/04/13 07:07:19;;;;;;;;;;;11.30;99.90;;;11.87;49.78;103221.41;5074916;28;19920;-71
2021/04/13 07:09:58;;;;;;;;;;;11.60;99.90;;;12.11;48.64;103219.47;5074604;28;19924;-71
2021/04/13 07:12:32;;;;;;;;;;;11.90;99.90;;;12.09;48.31;103222.09;5073463;28;19920;-71
2021/04/13 07:15:03;;;;;;;;;;;11.90;99.90;;;12.00;48.39;103228.91;5073265;28;20354;-70
2021/04/13 07:17:39;;;;;;;;;;;11.90;99.90;;;11.65;48.73;103226.13;5072720;28;19920;-71
2021/04/13 07:20:10;;;;;;;;;;;11.70;99.90;;;11.04;49.51;103214.50;5073157;28;20014;-71
2021/04/13 07:22:40;;;;;;;;;;;11.20;99.90;;;11.04;49.89;103229.50;5074563;28;20408;-71
2021/04/13 07:25:14;;;;;;;;;;;10.90;99.90;;;11.05;50.11;103232.22;5074411;28;19950;-71
2021/04/13 07:27:47;;;;;;;;;;;10.90;99.90;;;10.62;51.04;103208.75;5074415;28;20420;-71
2021/04/13 07:30:22;;;;;;;;;;;10.60;99.90;;;10.45;52.01;103225.78;5074340;28;19920;-70
2021/04/13 07:32:52;;;;;;;;;;;10.40;99.90;;;10.61;52.13;103232.50;5074269;28;19921;-71
2021/04/13 07:35:20;;;;;;;;;;;10.40;99.90;;;10.82;52.04;103228.81;5074239;28;20332;-71
2021/04/13 07:37:51;;;;;;;;;;;10.70;99.90;;;10.41;51.45;103127.75;5073964;28;19943;-71
2021/04/13 07:40:22;;;;;;;;;;;10.80;99.90;;;10.74;50.90;103235.59;5074461;28;19924;-70
2021/04/13 07:42:56;;;;;;;;;;;10.70;99.90;;;10.88;51.40;103233.41;5072503;28;19973;-71
2021/04/13 07:45:29;;;;;;;;;;;10.80;99.90;;;10.71;51.70;103234.59;5073956;28;19956;-70
2021/04/13 07:48:09;;;;;;;;;;;10.60;99.90;;;10.64;51.47;103232.63;5073790;28;19926;-70
2021/04/13 07:50:53;;;;;;;;;;;10.50;99.90;;;10.72;51.78;103228.47;5074028;28;19928;-71
2021/04/13 07:53:28;;;;;;;;;;;10.50;99.90;;;10.38;52.05;103238.75;5073886;28;20362;-70
2021/04/13 07:56:10;;;;;;;;;;;10.30;99.90;;;10.88;51.78;103244.00;5072495;28;19932;-70
2021/04/13 08:01:32;;;;;;;;;;;11.20;99.90;;;11.75;50.66;103246.75;5073529;28;19927;-70
2021/04/13 08:04:03;;;;;;;;;;;11.60;99.90;;;12.09;50.33;103237.09;5073667;28;19942;-70
2021/04/13 08:06:40;;;;;;;;;;;12.00;99.90;;;12.27;48.56;103246.44;5073403;28;19928;-71
2021/04/13 08:09:41;;;;;;;;;;;12.20;99.90;;;12.59;48.77;103237.56;5073845;28;19920;-70
2021/04/13 08:12:17;;;;;;;;;;;12.50;99.90;;;12.70;47.61;103232.50;5072069;28;19950;-70
2021/04/13 08:14:47;;;;;;;;;;;12.60;99.90;;;12.46;48.18;103226.59;5073599;28;19920;-71
2021/04/13 08:17:18;;;;;;;;;;;12.50;99.90;;;12.87;48.10;103241.81;5073312;28;20322;-70
2021/04/13 08:19:57;;;;;;;;;;;12.80;99.90;;;13.29;47.65;103253.47;5073615;28;19928;-71
2021/04/13 08:22:25;;;;;;;;;;;13.20;99.90;;;13.59;46.88;103251.47;5073380;28;20393;-70
2021/04/13 08:24:54;;;;;;;;;;;13.50;99.90;;;13.53;45.56;103234.47;5073245;28;19924;-70
2021/04/13 08:27:38;;;;;;;;;;;13.60;99.90;;;13.09;46.56;103252.09;5071900;28;20293;-70
2021/04/13 08:30:17;;;;;;;;;;;13.20;99.90;;;12.97;46.50;103224.34;5072226;28;19920;-71
2021/04/13 08:32:58;;;;;;;;;;;13.10;99.90;;;13.17;45.31;103253.19;5071317;28;19921;-71
2021/04/13 08:35:31;;;;;;;;;;;13.10;99.90;;;13.42;45.59;103263.53;5072827;28;19920;-70
2021/04/13 08:38:16;;;;;;;;;;;13.30;99.90;;;13.59;44.73;103267.44;5072914;28;20374;-70
2021/04/13 08:41:22;;;;;;;;;;;13.50;99.90;;;13.48;45.59;103153.72;5073054;28;19920;-70
2021/04/13 08:43:52;;;;;;;;;;;13.90;99.90;;;14.33;44.58;103234.38;5073256;28;19924;-70
2021/04/13 08:46:31;;;;;;;;;;;14.30;99.90;;;14.62;43.84;103249.94;5073074;28;19920;-70
2021/04/13 08:49:01;;;;;;;;;;;14.60;99.90;;;14.84;43.14;103261.03;5073186;28;20266;-71
2021/04/13 08:51:36;;;;;;;;;;;14.80;99.90;;;14.39;42.57;103247.81;5073204;28;20360;-71
2021/04/13 08:54:21;;;;;;;;;;;14.50;99.90;;;14.29;42.67;103252.91;5073108;28;20354;-71
2021/04/13 08:56:59;;;;;;;;;;;14.30;99.90;;;14.33;41.32;103268.09;5071503;28;19920;-71
2021/04/13 08:59:39;;;;;;;;;;;14.40;99.90;;;14.30;42.32;103252.06;5072864;28;19955;-70
2021/04/13 09:02:13;;;;;;;;;;;14.30;99.90;;;13.88;42.08;103254.75;5072336;28;19931;-70
2021/04/13 09:04:43;;;;;;;;;;;13.90;99.90;;;13.32;43.94;103257.94;5073059;28;19966;-71
2021/04/13 09:07:15;;;;;;;;;;;13.40;99.90;;;13.05;44.36;103244.94;5072853;28;19924;-70
2021/04/13 09:09:46;;;;;;;;;;;13.10;99.90;;;13.27;45.20;103246.31;5072656;28;19927;-70
2021/04/13 09:12:26;;;;;;;;;;;13.20;99.90;;;13.80;44.05;103264.31;5071713;28;20270;-70
2021/04/13 09:15:03;;;;;;;;;;;13.60;99.90;;;14.13;43.48;103253.47;5071658;28;19959;-70
2021/04/13 09:17:57;;;;;;;;;;;14.00;99.90;;;14.12;43.44;103249.00;5071354;28;19932;-71
2021/04/13 09:20:34;;;;;;;;;;;14.10;99.90;;;14.77;44.00;103259.09;5072909;28;19970;-71
2021/04/13 09:23:10;;;;;;;;;;;14.60;99.90;;;15.26;42.49;103264.34;5072806;28;19929;-71
2021/04/13 09:25:40;;;;;;;;;;;15.10;99.90;;;14.89;41.93;103275.31;5071365;28;20011;-71
2021/04/13 09:28:10;;;;;;;;;;;15.00;99.90;;;14.51;42.81;103260.44;5072467;28;19970;-71
2021/04/13 09:30:42;;;;;;;;;;;14.60;99.90;;;14.31;42.48;103252.09;5072796;28;19920;-70
2021/04/13 09:33:15;;;;;;;;;;;14.40;99.90;;;14.01;42.60;103263.88;5071578;28;19921;-70
2021/04/13 09:36:19;;;;;;;;;;;14.10;99.90;;;13.85;43.14;103254.69;5072675;28;19982;-71
2021/04/13 09:39:17;;;;;;;;;;;13.90;99.90;;;13.48;44.01;103263.66;5072547;28;19927;-71
2021/04/13 09:41:58;;;;;;;;;;;13.40;99.90;;;13.54;43.58;103269.13;5036193;28;19920;-70
2021/04/13 09:44:42;;;;;;;;;;;13.40;99.90;;;13.36;43.76;103271.34;5072937;28;19927;-70
2021/04/13 09:47:17;;;;;;;;;;;13.30;99.90;;;12.86;45.11;103263.91;5076292;28;20311;-70
2021/04/13 09:49:51;;;;;;;;;;;12.90;99.90;;;12.29;46.32;103257.13;5076139;28;20282;-70
2021/04/13 09:52:33;;;;;;;;;;;12.40;99.90;;;11.70;48.50;103240.44;5076115;28;19920;-70
2021/04/13 09:55:12;;;;;;;;;;;11.80;99.90;;;12.55;48.42;103262.25;5074853;28;19927;-70
2021/04/13 09:57:58;;;;;;;;;;;12.30;99.90;;;12.94;47.08;103256.13;5074982;28;19920;-70
2021/04/13 10:00:51;;;;;;;;;;;12.70;99.90;;;12.99;45.19;103258.03;5076279;28;19927;-70
2021/04/13 10:03:43;;;;;;;;;;;13.00;99.90;;;13.20;44.80;103258.56;5075699;28;19928;-70
2021/04/13 10:06:15;;;;;;;;;;;13.00;99.90;;;13.96;45.02;103262.88;5075862;28;19985;-71
2021/04/13 10:08:47;;;;;;;;;;;13.60;99.90;;;14.48;43.52;103260.38;5075948;28;19986;-71
2021/04/13 10:11:31;;;;;;;;;;;14.20;99.90;;;14.72;43.32;103266.13;5075568;28;19922;-71
2021/04/13 10:14:23;;;;;;;;;;;14.50;99.90;;;14.86;43.22;103267.28;5074462;28;19920;-71
2021/04/13 10:17:06;;;;;;;;;;;14.70;99.90;;;14.70;42.54;103262.53;5075683;28;19920;-71
2021/04/13 10:19:49;;;;;;;;;;;14.70;99.90;;;14.76;42.97;103270.66;5075466;28;19943;-71
2021/04/13 10:22:44;;;;;;;;;;;14.70;99.90;;;14.44;43.82;103258.50;5075320;28;19942;-70
2021/04/13 10:25:44;;;;;;;;;;;14.60;99.90;;;14.22;43.64;103257.22;5074393;28;19981;-71
2021/04/13 10:28:39;;;;;;;;;;;14.20;99.90;;;13.49;44.41;103246.81;5073993;28;19928;-71
2021/04/13 10:31:23;;;;;;;;;;;13.70;99.90;;;12.85;44.22;103161.19;5074146;28;20385;-70
2021/04/13 10:34:33;;;;;;;;;;;13.40;99.90;;;12.89;45.01;103245.38;5075543;28;19920;-70
2021/04/13 10:37:23;;;;;;;;;;;12.80;99.90;;;13.28;45.58;103250.75;5075335;28;19920;-71
2021/04/13 10:40:04;;;;;;;;;;;13.00;99.90;;;13.67;46.41;103243.66;5074597;28;19966;-70
2021/04/13 10:43:31;;;;;;;;;;;13.40;99.90;;;14.21;44.25;103243.84;5074690;28;19925;-71
2021/04/13 10:46:25;;;;;;;;;;;14.00;99.90;;;14.32;44.06;103231.69;5013293;28;20374;-71
2021/04/13 10:49:41;;;;;;;;;;;14.30;99.90;;;13.84;43.73;103246.69;4979786;28;19925;-71
2021/04/13 10:52:44;;;;;;;;;;;13.80;99.90;;;14.23;44.27;103242.13;5073661;28;19920;-72
2021/04/13 10:55:18;;;;;;;;;;;14.00;99.90;;;14.36;43.04;103242.41;5029020;28;19925;-71
2021/04/13 10:58:15;;;;;;;;;;;14.30;99.90;;;13.82;43.85;103243.09;5074687;28;19920;-71
2021/04/13 11:01:15;;;;;;;;;;;13.80;99.90;;;13.98;43.30;103246.06;5075016;28;19920;-71
2021/04/13 11:04:10;;;;;;;;;;;13.80;99.90;;;14.21;42.54;103246.50;5070072;28;19920;-71
2021/04/13 11:07:04;;;;;;;;;;;14.10;99.90;;;14.79;42.67;103246.69;5074939;28;19990;-71
2021/04/13 11:09:40;;;;;;;;;;;14.50;99.90;;;14.42;40.55;103204.31;5069353;28;19924;-71
2021/04/13 11:12:47;;;;;;;;;;;14.50;99.90;;;15.27;41.58;103235.91;5073447;28;19970;-71
2021/04/13 11:15:54;;;;;;;;;;;14.90;99.90;;;15.11;41.74;103232.13;5073473;28;19921;-71
2021/04/13 11:19:00;;;;;;;;;;;15.10;99.90;;;14.15;42.59;103227.78;5073174;28;19925;-71
2021/04/13 11:22:22;;;;;;;;;;;14.40;99.90;;;14.13;41.17;103225.06;5055929;28;20374;-71
2021/04/13 11:25:12;;;;;;;;;;;14.10;99.90;;;14.18;40.04;103217.19;5073957;28;19920;-71
2021/04/13 11:28:13;;;;;;;;;;;14.20;99.90;;;14.23;39.34;103215.50;5074049;28;19966;-71
2021/04/13 11:31:11;;;;;;;;;;;14.20;99.90;;;14.29;39.33;103218.31;5060096;28;19943;-71
2021/04/13 11:33:55;;;;;;;;;;;14.10;99.90;;;14.32;40.79;103213.06;5073950;28;20344;-71
2021/04/13 11:36:35;;;;;;;;;;;14.10;99.90;;;14.42;40.58;103209.66;5072802;28;19921;-71
2021/04/13 11:39:05;;;;;;;;;;;14.30;99.90;;;14.90;39.73;103221.16;5074041;28;20027;-71
2021/04/13 11:42:06;;;;;;;;;;;14.70;99.90;;;14.95;38.84;103218.53;5072658;28;19920;-70
2021/04/13 11:44:38;;;;;;;;;;;14.80;99.90;;;14.86;38.36;103215.72;5072580;28;19920;-71
2021/04/13 11:47:12;;;;;;;;;;;14.70;99.90;;;15.24;37.09;103218.09;5074085;28;19944;-71
2021/04/13 11:49:45;;;;;;;;;;;15.10;99.90;;;15.04;37.99;103206.22;5073734;28;19921;-71
2021/04/13 11:52:21;;;;;;;;;;;15.10;99.90;;;14.71;36.59;103199.50;5073492;28;19924;-71
2021/04/13 11:54:52;;;;;;;;;;;14.80;99.90;;;14.64;36.75;103193.16;5072628;28;19924;-71
2021/04/13 11:57:22;;;;;;;;;;;14.60;99.90;;;15.11;37.18;103204.56;5073748;28;19920;-71
2021/04/13 12:00:24;;;;;;;;;;;15.00;99.90;;;15.07;37.22;103216.97;5073833;28;19920;-71
2021/04/13 12:03:10;;;;;;;;;;;15.00;99.90;;;15.42;36.34;103211.25;5073843;28;19924;-71